Time;durP1;ratioP1;P1;durP2;ratioP2;P2;SDS_P1;SDS_P2;PMS_P1;PMS_P2;Temp;Humidity;BMP_temperature;BMP_pressure;BME280_temperature;BME280_humidity;BME280_pressure;Samples;Min_cycle;Max_cycle;Signal;HPM_P1;HPM_P2
2022/01/08 00:01:48;;;;;;;1.90;0.90;;;;;;;2.96;78.55;98285.59;5022559;27;103477;-64
2022/01/08 00:04:18;;;;;;;2.37;1.03;;;;;;;2.98;78.55;98268.94;5010630;28;104216;-65
2022/01/08 00:06:47;;;;;;;1.63;1.10;;;;;;;2.98;78.89;98265.47;5021096;27;103246;-65
2022/01/08 00:09:15;;;;;;;1.40;1.00;;;;;;;3.01;78.20;98258.34;5009550;28;103050;-65
2022/01/08 00:11:46;;;;;;;1.93;1.10;;;;;;;2.96;78.43;98254.28;5016000;28;103755;-65
2022/01/08 00:14:15;;;;;;;1.70;1.20;;;;;;;2.99;78.13;98248.91;5021210;27;103975;-65
2022/01/08 00:16:43;;;;;;;1.57;1.00;;;;;;;2.91;78.36;98234.50;5016034;27;103197;-65
2022/01/08 00:19:11;;;;;;;1.20;1.07;;;;;;;2.88;78.63;98236.41;5003972;28;102633;-68
2022/01/08 00:21:39;;;;;;;1.90;1.20;;;;;;;2.96;77.92;98230.78;5020435;27;104434;-65
2022/01/08 00:24:09;;;;;;;1.83;1.20;;;;;;;3.03;78.38;98224.38;5018351;28;104048;-70
2022/01/08 00:26:37;;;;;;;2.60;1.33;;;;;;;3.02;78.62;98215.69;5020346;27;103231;-70
2022/01/08 00:29:05;;;;;;;1.00;0.90;;;;;;;3.04;77.92;98215.59;5022255;27;102619;-70
2022/01/08 00:31:36;;;;;;;2.13;1.20;;;;;;;3.09;78.33;98197.97;5023193;27;103810;-70
2022/01/08 00:34:04;;;;;;;1.87;0.97;;;;;;;3.15;78.30;98198.47;5018092;27;103856;-70
2022/01/08 00:36:32;;;;;;;3.20;1.13;;;;;;;3.05;78.78;98197.28;5022272;28;103327;-70
2022/01/08 00:39:00;;;;;;;2.83;1.37;;;;;;;3.04;79.29;98195.56;5020878;27;102707;-71
2022/01/08 00:41:30;;;;;;;2.90;1.40;;;;;;;2.92;80.07;98204.00;5020599;27;102681;-70
2022/01/08 00:43:59;;;;;;;2.10;1.73;;;;;;;2.99;80.28;98194.09;5019591;27;103228;-71
2022/01/08 00:46:27;;;;;;;1.63;1.50;;;;;;;2.99;80.41;98196.72;5020589;27;103277;-70
2022/01/08 00:48:56;;;;;;;2.27;1.50;;;;;;;2.99;80.01;98188.91;5020031;28;102664;-70
2022/01/08 00:51:24;;;;;;;4.87;1.80;;;;;;;2.90;80.10;98188.44;5021588;28;102719;-71
2022/01/08 00:53:52;;;;;;;1.93;1.60;;;;;;;2.81;81.00;98177.59;5021955;27;104078;-70
2022/01/08 00:56:20;;;;;;;3.43;1.67;;;;;;;2.94;80.22;98178.69;5020390;28;103482;-70
2022/01/08 00:58:51;;;;;;;1.50;1.40;;;;;;;2.93;80.81;98177.84;5019693;27;102591;-70
2022/01/08 01:01:19;;;;;;;3.40;1.93;;;;;;;2.86;80.55;98178.25;5022498;27;103564;-71
2022/01/08 01:03:48;;;;;;;3.07;2.20;;;;;;;2.81;80.92;98168.00;5018699;27;103265;-70
2022/01/08 01:06:16;;;;;;;3.43;2.13;;;;;;;2.85;80.96;98164.34;5021904;28;103335;-70
2022/01/08 01:08:44;;;;;;;3.43;1.87;;;;;;;2.79;80.91;98164.63;5020797;28;103132;-70
2022/01/08 01:11:12;;;;;;;2.50;1.93;;;;;;;2.85;81.32;98147.84;5021171;28;104159;-70
2022/01/08 01:13:40;;;;;;;2.80;2.20;;;;;;;2.87;81.80;98146.84;5018800;27;103862;-70
2022/01/08 01:16:09;;;;;;;2.40;2.07;;;;;;;2.94;80.57;98142.16;5020984;27;103369;-70
2022/01/08 01:18:37;;;;;;;2.43;1.90;;;;;;;2.86;81.01;98136.50;5020954;27;102576;-70
2022/01/08 01:21:06;;;;;;;2.10;1.80;;;;;;;2.84;81.07;98139.16;5021568;27;103745;-70
2022/01/08 01:23:38;;;;;;;2.33;2.03;;;;;;;2.86;81.40;98129.47;5017832;28;103649;-70
2022/01/08 01:26:12;;;;;;;3.43;2.10;;;;;;;2.73;81.24;98123.19;5005340;28;103247;-70
2022/01/08 01:28:46;;;;;;;2.87;2.30;;;;;;;2.72;81.34;98118.06;5018506;27;104342;-70
2022/01/08 01:43:05;;;;;;;2.83;2.30;;;;;;;2.65;80.86;98082.78;5021257;27;102691;-70
2022/01/08 01:48:21;;;;;;;2.97;2.00;;;;;;;2.69;81.29;98066.91;5019088;27;103198;-70
2022/01/08 01:50:49;;;;;;;3.50;1.97;;;;;;;2.65;81.45;98061.91;5020178;27;102678;-70
2022/01/08 01:53:17;;;;;;;2.93;1.97;;;;;;;2.65;81.58;98048.88;5009529;28;102656;-70
2022/01/08 01:55:48;;;;;;;2.70;2.07;;;;;;;2.63;81.80;98043.75;5021539;27;105443;-70
2022/01/08 01:58:19;;;;;;;3.00;2.20;;;;;;;2.66;81.45;98029.69;5020111;28;103236;-71
2022/01/08 02:00:51;;;;;;;2.27;1.90;;;;;;;2.67;81.44;98026.16;5017822;27;102631;-70
2022/01/08 02:03:20;;;;;;;2.70;1.80;;;;;;;2.65;81.40;98022.78;5017373;27;104006;-70
2022/01/08 02:05:48;;;;;;;2.87;2.30;;;;;;;2.72;82.06;98017.16;5015703;28;103283;-70
2022/01/08 02:08:16;;;;;;;2.80;2.40;;;;;;;2.73;81.70;98003.22;5020311;27;102990;-70
2022/01/08 02:10:45;;;;;;;4.20;2.20;;;;;;;2.75;82.05;98001.34;5018122;28;102647;-70
2022/01/08 02:13:21;;;;;;;2.67;1.97;;;;;;;2.79;81.62;98000.28;5020248;27;103872;-70
2022/01/08 02:15:52;;;;;;;4.77;2.00;;;;;;;2.66;82.07;97991.44;5022962;27;103176;-70
2022/01/08 02:18:23;;;;;;;2.20;1.97;;;;;;;2.67;81.79;97987.03;5019556;27;103239;-70
2022/01/08 02:20:53;;;;;;;2.50;2.00;;;;;;;2.78;81.58;97990.78;5020514;27;102688;-69
2022/01/08 02:23:22;;;;;;;2.30;1.90;;;;;;;2.79;81.83;97987.25;5020115;27;103062;-70
2022/01/08 02:25:52;;;;;;;2.87;1.90;;;;;;;2.81;81.80;97977.56;5020379;27;104460;-70
2022/01/08 02:28:22;;;;;;;2.77;1.90;;;;;;;2.86;81.81;97967.72;5015536;28;103203;-70
2022/01/08 02:30:50;;;;;;;1.83;1.47;;;;;;;2.92;81.64;97972.63;5008457;28;102885;-70
2022/01/08 02:33:19;;;;;;;2.20;1.90;;;;;;;2.89;81.57;97969.34;5017498;27;103875;-70
2022/01/08 02:35:46;;;;;;;3.23;1.90;;;;;;;2.92;81.47;97967.41;5004368;28;104113;-70
2022/01/08 02:38:18;;;;;;;2.20;1.70;;;;;;;2.93;81.98;97963.88;5009082;28;104359;-70
2022/01/08 02:40:52;;;;;;;1.97;1.67;;;;;;;2.99;81.84;97946.22;5022317;27;102759;-70
2022/01/08 02:43:21;;;;;;;2.20;1.70;;;;;;;3.01;82.61;97952.19;5022484;27;103850;-70
2022/01/08 02:45:49;;;;;;;4.00;1.60;;;;;;;3.10;81.62;97936.03;5018727;28;103952;-70
2022/01/08 02:48:17;;;;;;;4.10;1.90;;;;;;;3.01;82.22;97928.69;5021009;27;103210;-70
2022/01/08 02:50:48;;;;;;;3.47;2.03;;;;;;;3.06;82.18;97937.13;5020051;27;102692;-70
2022/01/08 02:53:16;;;;;;;2.17;1.60;;;;;;;3.09;82.60;97924.75;5005260;28;103933;-70
2022/01/08 02:55:45;;;;;;;2.87;2.03;;;;;;;3.17;82.26;97926.97;5015248;28;103988;-70
2022/01/08 02:58:15;;;;;;;2.00;1.50;;;;;;;3.20;81.80;97922.38;5019418;27;103245;-70
2022/01/08 03:00:43;;;;;;;2.17;1.70;;;;;;;3.19;82.00;97912.03;5017378;28;102638;-70
2022/01/08 03:03:13;;;;;;;2.30;1.70;;;;;;;3.22;82.75;97907.50;5018139;27;102897;-70
2022/01/08 03:05:42;;;;;;;1.67;1.57;;;;;;;3.19;82.27;97906.81;5009429;28;103819;-71
2022/01/08 03:08:10;;;;;;;1.53;1.27;;;;;;;3.20;82.07;97896.28;5019048;28;103198;-70
2022/01/08 03:10:38;;;;;;;2.73;1.53;;;;;;;3.16;82.16;97899.16;5020388;27;102818;-70
2022/01/08 03:13:07;;;;;;;1.60;1.17;;;;;;;3.24;82.54;97891.75;5019174;27;102827;-65
2022/01/08 03:15:37;;;;;;;1.93;0.90;;;;;;;3.36;82.46;97893.69;5015423;27;103685;-64
2022/01/08 03:18:05;;;;;;;1.20;0.90;;;;;;;3.44;82.36;97891.47;5009911;28;104154;-64
2022/01/08 03:20:43;;;;;;;2.23;1.20;;;;;;;3.44;83.13;97888.88;5005936;28;102804;-70
2022/01/08 03:23:16;;;;;;;3.47;1.30;;;;;;;3.47;83.52;97892.16;5021213;27;103972;-70
2022/01/08 03:25:45;;;;;;;1.40;1.30;;;;;;;3.47;84.47;97878.25;5018881;28;103197;-70
2022/01/08 03:28:15;;;;;;;2.07;1.33;;;;;;;3.40;85.10;97880.34;5016333;27;104184;-70
2022/01/08 03:30:45;;;;;;;1.10;1.00;;;;;;;3.49;85.50;97889.44;5018008;27;102654;-70
2022/01/08 03:33:14;;;;;;;2.60;1.20;;;;;;;3.47;86.41;97880.84;5019227;28;104265;-70
2022/01/08 03:35:41;;;;;;;2.63;1.30;;;;;;;3.47;86.90;97876.47;5018555;27;103978;-71
2022/01/08 03:38:10;;;;;;;1.80;1.30;;;;;;;3.43;87.85;97864.50;5018500;28;103214;-70
2022/01/08 03:40:38;;;;;;;2.00;1.33;;;;;;;3.41;88.39;97860.31;5017402;27;102680;-70
2022/01/08 03:43:06;;;;;;;4.03;1.20;;;;;;;3.42;88.34;97867.22;5018753;27;103568;-71
2022/01/08 03:45:36;;;;;;;2.93;1.13;;;;;;;3.37;89.15;97864.84;5020492;27;103714;-65
2022/01/08 03:48:19;;;;;;;1.63;1.40;;;;;;;3.27;90.29;97862.84;5009034;27;103191;-64
2022/01/08 03:50:48;;;;;;;3.27;1.60;;;;;;;3.24;90.51;97860.41;5021010;28;103085;-64
2022/01/08 03:53:18;;;;;;;2.40;1.43;;;;;;;3.23;91.59;97853.53;5022242;28;102607;-70
2022/01/08 03:55:46;;;;;;;1.63;1.50;;;;;;;3.21;92.02;97858.81;5021040;27;104373;-72
2022/01/08 03:58:14;;;;;;;2.00;1.60;;;;;;;3.22;92.37;97844.84;5015049;27;103279;-71
2022/01/08 04:00:44;;;;;;;2.03;1.50;;;;;;;3.27;92.36;97857.63;5022022;28;102627;-64
2022/01/08 04:03:12;;;;;;;1.70;1.60;;;;;;;3.24;92.71;97853.44;5022478;27;102783;-64
2022/01/08 04:05:40;;;;;;;2.57;1.60;;;;;;;3.17;93.26;97852.06;5005860;28;104052;-64
2022/01/08 04:08:09;;;;;;;3.17;1.63;;;;;;;3.19;94.32;97844.19;5022493;27;103241;-64
2022/01/08 04:10:37;;;;;;;2.33;1.70;;;;;;;3.14;94.74;97846.22;5020210;27;102956;-64
2022/01/08 04:13:11;;;;;;;2.50;1.83;;;;;;;3.13;95.08;97853.19;5020913;27;103659;-64
2022/01/08 04:15:41;;;;;;;2.10;1.50;;;;;;;3.13;94.82;97841.91;5015977;28;104147;-65
2022/01/08 04:18:11;;;;;;;2.20;1.77;;;;;;;3.22;94.39;97844.00;5022923;27;103212;-65
2022/01/08 04:20:50;;;;;;;1.50;1.40;;;;;;;3.13;94.46;97849.75;5022483;27;102925;-65
2022/01/08 04:23:21;;;;;;;2.27;1.90;;;;;;;3.18;94.43;97852.94;5015853;27;102745;-65
2022/01/08 04:25:50;;;;;;;1.57;1.43;;;;;;;3.18;94.68;97845.09;5020847;27;103254;-64
2022/01/08 04:28:18;;;;;;;1.90;1.67;;;;;;;3.21;93.87;97850.16;5008404;28;103193;-64
2022/01/08 04:30:46;;;;;;;3.20;1.53;;;;;;;3.28;94.04;97848.88;5020200;28;102637;-65
2022/01/08 04:33:17;;;;;;;1.40;1.30;;;;;;;3.25;94.10;97862.13;5014956;28;103574;-64
2022/01/08 04:35:45;;;;;;;1.70;1.60;;;;;;;3.25;94.52;97854.28;5020992;28;102591;-65
2022/01/08 04:38:13;;;;;;;1.87;1.70;;;;;;;3.28;94.08;97875.00;5020771;27;103181;-64
2022/01/08 04:40:41;;;;;;;2.27;1.73;;;;;;;3.42;93.72;97877.69;5018895;28;102539;-65
2022/01/08 04:43:09;;;;;;;1.90;1.50;;;;;;;3.18;94.43;97881.63;5007599;28;103884;-64
2022/01/08 04:45:38;;;;;;;1.70;1.60;;;;;;;3.26;94.48;97888.13;5021676;27;103795;-65
2022/01/08 04:48:06;;;;;;;2.37;1.70;;;;;;;3.26;94.96;97888.13;5016570;28;103220;-64
2022/01/08 04:50:36;;;;;;;1.67;1.50;;;;;;;3.23;95.70;97892.69;5020819;27;102580;-64
2022/01/08 04:53:05;;;;;;;2.40;1.30;;;;;;;3.16;96.48;97891.34;5024851;27;102833;-65
2022/01/08 04:55:33;;;;;;;1.43;1.23;;;;;;;3.20;97.12;97903.31;5005310;28;103243;-65
2022/01/08 04:58:01;;;;;;;1.47;1.37;;;;;;;3.06;97.14;97905.81;5016797;28;104133;-65
2022/01/08 05:00:29;;;;;;;2.03;1.23;;;;;;;2.97;98.14;97904.56;5022702;27;102718;-65
2022/01/08 05:02:57;;;;;;;2.47;1.27;;;;;;;2.96;98.95;97912.44;5020016;28;102734;-64
2022/01/08 05:05:25;;;;;;;3.37;1.33;;;;;;;2.99;99.50;97922.72;5021967;27;103906;-64
2022/01/08 05:07:55;;;;;;;1.73;1.23;;;;;;;2.86;100.00;97925.97;5020730;27;103185;-64
2022/01/08 05:10:23;;;;;;;2.60;1.40;;;;;;;2.82;99.87;97924.47;5018731;27;102608;-64
2022/01/08 05:12:51;;;;;;;1.53;1.10;;;;;;;2.75;100.00;97930.94;5018087;27;103198;-64
2022/01/08 05:15:22;;;;;;;2.33;1.40;;;;;;;2.85;100.00;97939.13;5021202;27;104021;-64
2022/01/08 05:17:54;;;;;;;1.10;1.00;;;;;;;2.82;100.00;97941.88;5011204;28;103181;-64
2022/01/08 05:20:23;;;;;;;1.63;1.00;;;;;;;2.80;100.00;97951.56;5022348;27;102599;-64
2022/01/08 05:22:59;;;;;;;1.10;1.00;;;;;;;2.74;100.00;97965.78;5019581;27;103822;-64
2022/01/08 05:25:30;;;;;;;1.37;1.00;;;;;;;2.72;100.00;97962.38;5019418;27;103232;-64
2022/01/08 05:27:59;;;;;;;1.20;1.10;;;;;;;2.50;100.00;97969.63;5013035;28;103237;-64
2022/01/08 05:30:28;;;;;;;1.87;1.23;;;;;;;2.58;100.00;97977.94;5019839;27;102714;-65
2022/01/08 05:32:57;;;;;;;1.30;1.20;;;;;;;2.68;100.00;97986.13;5013993;28;104190;-64
2022/01/08 05:35:28;;;;;;;1.83;1.63;;;;;;;2.63;100.00;97988.97;5022896;27;103293;-65
2022/01/08 05:37:59;;;;;;;3.03;2.23;;;;;;;2.68;100.00;97994.78;5019228;27;103292;-65
2022/01/08 05:40:28;;;;;;;1.50;1.40;;;;;;;2.57;100.00;97994.50;5021395;27;103701;-65
2022/01/08 05:42:56;;;;;;;1.53;1.43;;;;;;;2.62;100.00;98000.31;5014766;27;102660;-65
2022/01/08 05:45:25;;;;;;;1.43;1.00;;;;;;;2.44;100.00;98019.53;5010759;28;103756;-64
2022/01/08 05:47:53;;;;;;;1.23;0.80;;;;;;;2.43;100.00;98022.19;5020388;27;103180;-65
2022/01/08 05:50:21;;;;;;;0.70;0.60;;;;;;;2.27;100.00;98019.50;5004675;28;102639;-64
2022/01/08 05:52:49;;;;;;;0.80;0.70;;;;;;;2.42;100.00;98023.94;5018408;27;103879;-65
2022/01/08 05:55:18;;;;;;;0.93;0.80;;;;;;;2.42;100.00;98039.59;5017731;28;104008;-64
2022/01/08 05:57:48;;;;;;;0.50;0.50;;;;;;;2.46;100.00;98041.13;5017062;28;103254;-65
2022/01/08 06:00:16;;;;;;;0.70;0.50;;;;;;;2.49;100.00;98046.19;5022536;27;103206;-64
2022/01/08 06:02:44;;;;;;;0.60;0.60;;;;;;;2.46;100.00;98059.38;5015371;28;102721;-65
2022/01/08 06:05:12;;;;;;;0.80;0.60;;;;;;;2.43;100.00;98071.72;5014750;28;104468;-65
2022/01/08 06:07:43;;;;;;;0.73;0.70;;;;;;;2.34;100.00;98089.50;5019983;27;104704;-64
2022/01/08 06:10:11;;;;;;;0.70;0.60;;;;;;;2.43;100.00;98093.44;5015118;27;103297;-64
2022/01/08 06:12:39;;;;;;;0.77;0.57;;;;;;;2.31;100.00;98094.88;5021417;27;103188;-65
2022/01/08 06:15:10;;;;;;;0.40;0.40;;;;;;;2.31;99.66;98114.88;5008177;28;104212;-64
2022/01/08 06:17:38;;;;;;;0.40;0.40;;;;;;;2.27;98.85;98124.59;5017997;28;103191;-64
2022/01/08 06:20:07;;;;;;;1.20;0.50;;;;;;;2.24;99.15;98134.34;5017771;28;102733;-64
2022/01/08 06:22:35;;;;;;;0.50;0.50;;;;;;;2.34;98.48;98151.22;5018720;27;102808;-65
2022/01/08 06:25:03;;;;;;;0.40;0.40;;;;;;;2.30;99.05;98160.13;5019128;28;104490;-64
2022/01/08 06:27:31;;;;;;;0.40;0.40;;;;;;;2.16;99.58;98167.75;5011681;27;103189;-64
2022/01/08 06:29:59;;;;;;;0.50;0.30;;;;;;;2.13;99.75;98173.94;5018981;27;102559;-64
2022/01/08 06:32:31;;;;;;;0.40;0.40;;;;;;;2.16;99.83;98183.38;5020274;28;102909;-64
2022/01/08 06:35:01;;;;;;;0.43;0.43;;;;;;;2.06;99.30;98192.53;5019892;28;102991;-65
2022/01/08 06:37:31;;;;;;;0.50;0.50;;;;;;;2.12;98.98;98192.25;5017931;28;104220;-65
2022/01/08 06:39:59;;;;;;;0.90;0.50;;;;;;;2.09;98.37;98213.25;5007607;28;102554;-64
2022/01/08 06:42:27;;;;;;;0.70;0.50;;;;;;;2.08;97.78;98216.75;5019687;27;102614;-64
2022/01/08 06:44:55;;;;;;;0.70;0.67;;;;;;;2.11;97.79;98227.03;5016842;28;104184;-64
2022/01/08 06:47:23;;;;;;;0.60;0.40;;;;;;;2.17;98.43;98227.63;5020410;27;103177;-65
2022/01/08 06:49:55;;;;;;;0.93;0.53;;;;;;;2.11;98.44;98237.47;5022010;27;102743;-64
2022/01/08 06:52:23;;;;;;;0.60;0.57;;;;;;;2.22;98.05;98250.84;5006572;28;103878;-65
2022/01/08 06:54:52;;;;;;;0.60;0.60;;;;;;;2.25;97.74;98261.13;5019009;27;103262;-63
2022/01/08 06:57:23;;;;;;;1.10;0.70;;;;;;;2.27;98.24;98269.75;5017065;28;103288;-63
2022/01/08 06:59:51;;;;;;;0.67;0.63;;;;;;;2.26;97.07;98283.69;5018139;28;102628;-63
2022/01/08 07:02:19;;;;;;;0.63;0.57;;;;;;;2.22;97.21;98295.16;5016565;27;103899;-63
2022/01/08 07:04:47;;;;;;;1.57;0.80;;;;;;;2.21;97.04;98306.50;5019086;27;103276;-63
2022/01/08 07:07:17;;;;;;;1.47;0.63;;;;;;;2.25;97.64;98315.88;5013306;28;104097;-63
2022/01/08 07:09:46;;;;;;;1.07;0.90;;;;;;;2.15;96.68;98325.03;5009926;28;102764;-63
2022/01/08 07:12:14;;;;;;;0.80;0.80;;;;;;;2.12;96.74;98327.75;5019413;27;103264;-63
2022/01/08 07:14:42;;;;;;;1.23;1.00;;;;;;;2.14;96.30;98342.41;5018379;28;104083;-67
2022/01/08 07:17:11;;;;;;;1.33;0.87;;;;;;;2.22;97.56;98349.88;5017768;27;103224;-67
2022/01/08 07:19:39;;;;;;;1.23;0.83;;;;;;;2.13;95.98;98363.34;5022618;28;102903;-67
2022/01/08 07:22:07;;;;;;;1.53;1.37;;;;;;;2.20;95.56;98364.75;5007787;28;104101;-67
2022/01/08 07:24:36;;;;;;;1.43;1.10;;;;;;;2.15;95.98;98374.53;5022399;27;103246;-68
2022/01/08 07:27:05;;;;;;;1.37;1.20;;;;;;;2.19;95.63;98381.34;5019669;28;103268;-67
2022/01/08 07:29:33;;;;;;;3.10;1.40;;;;;;;2.17;96.87;98393.56;5022181;28;102880;-67
2022/01/08 07:32:01;;;;;;;1.40;1.30;;;;;;;2.19;96.77;98402.19;5021149;28;104116;-67
2022/01/08 07:34:29;;;;;;;2.47;1.10;;;;;;;2.10;98.18;98403.44;5021636;28;103332;-67
2022/01/08 07:36:57;;;;;;;1.73;1.63;;;;;;;2.10;99.20;98413.00;5021270;27;103199;-67
2022/01/08 07:39:25;;;;;;;2.60;1.80;;;;;;;2.14;99.29;98417.16;5022543;28;102868;-67
2022/01/08 07:41:55;;;;;;;3.50;1.67;;;;;;;2.16;99.72;98416.16;5010644;28;103885;-67
2022/01/08 07:44:25;;;;;;;4.57;1.87;;;;;;;2.16;98.82;98425.78;5021772;28;103716;-67
2022/01/08 07:46:53;;;;;;;2.43;1.77;;;;;;;2.09;99.67;98426.94;5023711;27;103351;-67
2022/01/08 07:49:22;;;;;;;2.20;1.90;;;;;;;2.14;99.74;98432.78;5021957;27;102915;-67
2022/01/08 07:51:50;;;;;;;3.27;1.90;;;;;;;2.08;100.00;98428.69;5022682;27;103818;-67
2022/01/08 07:54:18;;;;;;;2.30;2.10;;;;;;;2.20;99.45;98440.34;5020126;28;104102;-67
2022/01/08 07:56:46;;;;;;;3.27;2.20;;;;;;;2.18;99.67;98448.25;5022370;28;103376;-66
2022/01/08 07:59:15;;;;;;;3.43;2.07;;;;;;;2.14;98.99;98451.88;5020255;28;102672;-67
2022/01/08 08:01:44;;;;;;;1.50;1.40;;;;;;;2.33;98.82;98447.56;5018613;28;102679;-67
2022/01/08 08:04:12;;;;;;;2.23;1.80;;;;;;;2.33;97.66;98462.34;5026090;27;103723;-67
2022/01/08 08:06:44;;;;;;;3.10;1.83;;;;;;;2.41;97.45;98475.09;5022599;28;103207;-67
2022/01/08 08:09:12;;;;;;;3.97;2.03;;;;;;;2.38;96.46;98478.69;5021720;28;103883;-63
2022/01/08 08:11:40;;;;;;;3.90;1.80;;;;;;;2.38;97.22;98485.66;5019225;27;103664;-63
2022/01/08 08:14:08;;;;;;;2.83;2.00;;;;;;;2.26;96.74;98498.28;5015366;28;104188;-63
2022/01/08 08:16:37;;;;;;;1.70;1.60;;;;;;;2.30;96.23;98504.22;5021809;27;103245;-63
2022/01/08 08:19:05;;;;;;;5.33;2.30;;;;;;;2.32;95.86;98507.63;5021364;27;102628;-68
2022/01/08 08:21:34;;;;;;;2.30;1.40;;;;;;;2.45;95.25;98507.91;5021117;27;103204;-66
2022/01/08 08:24:04;;;;;;;2.27;1.30;;;;;;;2.53;95.17;98509.28;5013342;27;103593;-64
2022/01/08 08:26:33;;;;;;;3.87;2.17;;;;;;;2.55;94.09;98510.09;5008962;28;104175;-64
2022/01/08 08:29:01;;;;;;;2.03;1.53;;;;;;;2.60;93.95;98518.56;5021260;27;102629;-68
2022/01/08 08:31:29;;;;;;;1.57;1.40;;;;;;;2.57;94.36;98521.31;5010104;28;102742;-68
2022/01/08 08:33:59;;;;;;;4.47;1.50;;;;;;;2.57;93.33;98533.50;5021261;28;103214;-68
2022/01/08 08:36:27;;;;;;;2.80;1.43;;;;;;;2.60;91.84;98523.78;5018467;27;103303;-68
2022/01/08 08:38:55;;;;;;;2.80;1.60;;;;;;;2.66;92.67;98533.09;5015547;28;102790;-67
2022/01/08 08:41:23;;;;;;;1.50;1.30;;;;;;;2.77;91.52;98536.94;5014655;28;103511;-68
2022/01/08 08:43:51;;;;;;;1.27;1.13;;;;;;;2.81;92.41;98537.63;5015114;28;103146;-70
2022/01/08 08:46:20;;;;;;;3.37;1.40;;;;;;;2.89;90.80;98540.78;5019686;27;103348;-67
2022/01/08 08:48:48;;;;;;;4.97;1.23;;;;;;;3.01;90.93;98540.22;5012039;27;102975;-69
2022/01/08 08:51:17;;;;;;;2.97;1.50;;;;;;;3.04;90.04;98547.91;5020856;28;102735;-69
2022/01/08 08:53:45;;;;;;;2.80;1.40;;;;;;;3.05;90.18;98554.00;5018369;28;103904;-67
2022/01/08 08:56:13;;;;;;;2.60;1.30;;;;;;;3.06;89.70;98558.31;5019893;27;103283;-68
2022/01/08 08:58:41;;;;;;;1.87;1.20;;;;;;;2.81;89.61;98564.59;5016228;28;102613;-68
2022/01/08 09:01:10;;;;;;;2.90;1.00;;;;;;;2.96;89.26;98573.50;5020263;28;103724;-70
2022/01/08 09:03:38;;;;;;;3.83;1.57;;;;;;;3.05;88.98;98572.25;5019325;28;103250;-68
2022/01/08 09:06:06;;;;;;;3.27;1.40;;;;;;;2.91;88.93;98581.56;5018692;27;103260;-68
2022/01/08 09:08:36;;;;;;;5.50;1.40;;;;;;;2.90;88.74;98574.63;5016949;27;102724;-69
2022/01/08 09:11:04;;;;;;;5.10;1.50;;;;;;;2.96;88.22;98580.47;5014365;27;103901;-70
2022/01/08 09:13:32;;;;;;;1.53;1.13;;;;;;;3.13;88.69;98580.59;5020463;27;103765;-70
2022/01/08 09:16:03;;;;;;;5.43;2.07;;;;;;;3.11;88.92;98592.88;5020862;27;102613;-70
2022/01/08 09:18:31;;;;;;;2.53;1.20;;;;;;;3.52;86.32;98581.41;5020038;28;102770;-70
2022/01/08 09:20:59;;;;;;;3.30;1.60;;;;;;;3.41;87.26;98591.50;5019801;27;102880;-70
2022/01/08 09:23:27;;;;;;;4.80;1.50;;;;;;;3.44;85.45;98597.44;5020510;28;104093;-70
2022/01/08 09:25:57;;;;;;;2.87;1.37;;;;;;;3.58;84.57;98599.44;5022815;27;103020;-67
2022/01/08 09:28:26;;;;;;;3.80;1.57;;;;;;;3.42;85.21;98603.66;5016958;28;102630;-68
2022/01/08 09:30:54;;;;;;;4.40;1.60;;;;;;;3.32;85.14;98603.22;5015385;28;104055;-68
2022/01/08 09:33:22;;;;;;;5.87;1.57;;;;;;;3.44;83.45;98596.59;5015035;27;103858;-68
2022/01/08 09:35:51;;;;;;;2.17;1.33;;;;;;;3.65;83.54;98611.28;5009138;28;105424;-70
2022/01/08 09:38:20;;;;;;;2.87;1.80;;;;;;;3.59;83.77;98606.34;5017542;27;102688;-69
2022/01/08 09:40:51;;;;;;;2.87;1.70;;;;;;;3.54;83.60;98605.69;5018581;28;103518;-67
2022/01/08 09:43:21;;;;;;;4.10;1.43;;;;;;;3.52;82.78;98607.53;5011272;28;104256;-67
2022/01/08 09:45:49;;;;;;;2.67;1.30;;;;;;;3.62;81.64;98598.34;5017972;27;103833;-67
2022/01/08 09:48:17;;;;;;;3.23;1.67;;;;;;;3.60;82.71;98597.59;5016305;28;102568;-67
2022/01/08 09:50:46;;;;;;;3.03;1.33;;;;;;;3.61;82.41;98608.88;5019238;27;102980;-67
2022/01/08 09:53:14;;;;;;;4.93;2.43;;;;;;;3.60;81.15;98602.81;5021667;27;102576;-70
2022/01/08 09:55:43;;;;;;;2.87;1.73;;;;;;;3.73;81.42;98598.75;5008058;28;102612;-70
2022/01/08 09:58:13;;;;;;;2.57;2.00;;;;;;;3.58;81.95;98606.41;5011176;27;102689;-69
2022/01/08 10:00:46;;;;;;;4.77;1.60;;;;;;;3.46;81.33;98611.28;5019140;27;104495;-70
2022/01/08 10:03:17;;;;;;;2.67;1.80;;;;;;;3.27;80.67;98614.78;5017390;27;103645;-69
2022/01/08 10:05:47;;;;;;;3.63;1.83;;;;;;;3.37;82.40;98616.06;5002479;28;103425;-67
2022/01/08 10:08:35;;;;;;;6.17;2.40;;;;;;;3.18;81.70;98609.94;5007436;28;103979;-68
2022/01/08 10:11:08;;;;;;;2.63;1.90;;;;;;;3.34;82.46;98608.38;5020625;28;103333;-68
2022/01/08 10:13:40;;;;;;;3.77;1.77;;;;;;;3.22;80.69;98607.16;5020635;27;103225;-68
2022/01/08 10:18:58;;;;;;;4.43;1.83;;;;;;;3.20;81.94;98618.59;5010925;28;102925;-69
2022/01/08 10:21:28;;;;;;;4.90;2.10;;;;;;;3.11;80.75;98625.06;5018936;27;103761;-69
2022/01/08 10:24:03;;;;;;;3.00;2.00;;;;;;;3.22;81.27;98616.75;5016485;28;102957;-69
2022/01/08 10:26:36;;;;;;;3.67;1.90;;;;;;;3.22;80.87;98624.59;5020722;27;103218;-69
2022/01/08 10:29:06;;;;;;;3.40;1.80;;;;;;;3.06;81.10;98632.22;5011595;28;102806;-69
2022/01/08 10:31:39;;;;;;;3.70;1.80;;;;;;;2.95;80.42;98623.19;5020284;27;102631;-69
2022/01/08 10:34:09;;;;;;;4.30;2.07;;;;;;;2.96;80.99;98614.41;5016730;28;104196;-68
2022/01/08 10:36:40;;;;;;;3.10;1.80;;;;;;;3.00;80.59;98626.44;5023113;27;103208;-69
2022/01/08 10:39:10;;;;;;;3.93;1.77;;;;;;;2.88;79.56;98633.03;5015536;28;102652;-69
2022/01/08 10:41:42;;;;;;;2.27;1.70;;;;;;;2.96;79.94;98630.94;5021956;27;102582;-69
2022/01/08 10:44:13;;;;;;;3.40;1.80;;;;;;;2.92;79.53;98624.97;5015283;28;105846;-69
2022/01/08 10:46:57;;;;;;;3.40;1.80;;;;;;;3.02;78.95;98624.59;5017788;27;103202;-68
2022/01/08 10:49:31;;;;;;;6.27;2.00;;;;;;;3.01;79.81;98620.28;5006261;28;102755;-68
2022/01/08 10:52:01;;;;;;;4.60;1.70;;;;;;;2.92;79.29;98626.75;5021297;27;103800;-68
2022/01/08 10:54:30;;;;;;;2.97;1.63;;;;;;;2.91;78.11;98625.91;5017581;27;105381;-68
2022/01/08 10:57:02;;;;;;;3.10;1.97;;;;;;;2.96;78.91;98630.06;5021763;27;102951;-68
2022/01/08 10:59:32;;;;;;;3.83;1.70;;;;;;;2.97;78.79;98629.16;5005827;27;102555;-68
2022/01/08 11:02:03;;;;;;;4.67;2.10;;;;;;;3.45;79.06;98629.63;5012270;28;102869;-67
2022/01/08 11:04:34;;;;;;;3.30;1.90;;;;;;;3.76;77.74;98627.31;5015261;28;104788;-68
2022/01/08 11:07:05;;;;;;;3.50;1.80;;;;;;;3.52;76.61;98620.59;5014571;28;103187;-68
2022/01/08 11:09:34;;;;;;;2.43;1.60;;;;;;;3.92;76.90;98620.47;5006211;28;103199;-69
2022/01/08 11:12:03;;;;;;;3.33;1.67;;;;;;;4.28;75.21;98622.25;5016436;27;103267;-69
2022/01/08 11:17:37;;;;;;;3.67;1.60;;;;;;;5.30;69.48;98600.47;5010371;28;103381;-69
2022/01/08 11:20:09;;;;;;;1.93;1.43;;;;;;;5.44;68.35;98587.47;5016535;27;102576;-69
2022/01/08 11:22:39;;;;;;;4.87;1.87;;;;;;;5.76;69.10;98588.34;5015194;28;104111;-69
2022/01/08 11:25:10;;;;;;;4.53;1.73;;;;;;;5.64;67.07;98583.78;5011839;28;104479;-69
2022/01/08 11:27:47;;;;;;;3.60;1.60;;;;;;;5.83;66.85;98579.22;5013492;27;103326;-69
2022/01/08 11:30:22;;;;;;;4.17;1.60;;;;;;;5.84;67.06;98580.91;5014224;27;102686;-69
2022/01/08 11:32:54;;;;;;;6.43;1.80;;;;;;;5.53;66.49;98573.03;5003566;28;102716;-69
2022/01/08 11:35:43;;;;;;;2.30;1.37;;;;;;;4.82;67.54;98584.66;5018905;27;103235;-69
2022/01/08 11:38:13;;;;;;;4.53;1.50;;;;;;;4.62;69.12;98575.19;5013102;28;103214;-69
2022/01/08 11:40:43;;;;;;;2.07;1.40;;;;;;;4.56;70.14;98583.34;5005181;28;102807;-69
2022/01/08 11:43:14;;;;;;;2.67;1.30;;;;;;;4.62;69.49;98575.19;5016519;27;102592;-69
2022/01/08 11:45:48;;;;;;;2.33;1.20;;;;;;;4.55;69.54;98568.56;5015161;27;104007;-69
2022/01/08 11:48:19;;;;;;;2.90;1.30;;;;;;;4.39;69.11;98567.66;5012816;28;103191;-69
2022/01/08 11:50:52;;;;;;;4.37;1.50;;;;;;;4.55;70.50;98574.66;5014646;28;102560;-69
2022/01/08 11:53:22;;;;;;;3.67;1.40;;;;;;;4.70;69.93;98573.03;5014974;28;103842;-69
2022/01/08 11:55:52;;;;;;;3.17;1.27;;;;;;;4.85;69.25;98553.94;5009637;27;103322;-68
2022/01/08 11:58:23;;;;;;;4.07;1.20;;;;;;;4.69;68.65;98556.50;5012856;28;103219;-69
2022/01/08 12:00:55;;;;;;;3.20;1.20;;;;;;;5.06;68.94;98549.34;5012438;28;102582;-69
2022/01/08 12:03:31;;;;;;;2.60;1.30;;;;;;;4.94;68.57;98539.53;5015133;28;103139;-69